Time;durP1;ratioP1;P1;durP2;ratioP2;P2;SDS_P1;SDS_P2;PMS_P1;PMS_P2;Temp;Humidity;BMP_temperature;BMP_pressure;BME280_temperature;BME280_humidity;BME280_pressure;Samples;Min_cycle;Max_cycle;Signal;HPM_P1;HPM_P2
2023/12/06 00:00:09;;;;;;;14.75;9.50;;;;;;;;;;5057985;28;20029;-68
2023/12/06 00:02:35;;;;;;;14.13;9.95;;;;;;;;;;5054330;28;20158;-68
2023/12/06 00:05:02;;;;;;;12.45;8.90;;;;;;;;;;5060710;28;20461;-68
2023/12/06 00:07:28;;;;;;;13.65;8.75;;;;;;;;;;5072322;28;20063;-69
2023/12/06 00:09:55;;;;;;;14.27;8.35;;;;;;;;;;5059854;28;20033;-68
2023/12/06 00:12:21;;;;;;;11.23;7.43;;;;;;;;;;5060544;28;20549;-68
2023/12/06 00:14:47;;;;;;;11.25;7.65;;;;;;;;;;5057948;28;20791;-68
2023/12/06 00:17:14;;;;;;;12.13;8.07;;;;;;;;;;5081424;28;20115;-68
2023/12/06 00:19:40;;;;;;;8.05;6.00;;;;;;;;;;5059601;28;20036;-68
2023/12/06 00:22:06;;;;;;;15.32;8.23;;;;;;;;;;5065300;28;20066;-68
2023/12/06 00:24:33;;;;;;;17.25;8.40;;;;;;;;;;5053356;28;20044;-68
2023/12/06 00:27:00;;;;;;;13.10;7.40;;;;;;;;;;5070395;28;20033;-68
2023/12/06 00:29:26;;;;;;;53.78;19.65;;;;;;;;;;5055607;28;20104;-68
2023/12/06 00:31:52;;;;;;;42.25;15.80;;;;;;;;;;5060678;28;20139;-68
2023/12/06 00:34:18;;;;;;;16.70;7.78;;;;;;;;;;5056708;28;20124;-68
2023/12/06 00:36:45;;;;;;;5.57;4.18;;;;;;;;;;5060843;28;20043;-68
2023/12/06 00:39:13;;;;;;;8.20;4.88;;;;;;;;;;5055211;28;20591;-68
2023/12/06 00:41:39;;;;;;;6.10;3.20;;;;;;;;;;5054928;28;20176;-67
2023/12/06 00:44:07;;;;;;;3.85;3.45;;;;;;;;;;5054641;28;20106;-68
2023/12/06 00:46:33;;;;;;;4.82;4.07;;;;;;;;;;5051737;28;20168;-68
2023/12/06 00:48:59;;;;;;;4.65;3.30;;;;;;;;;;5051076;28;20056;-68
2023/12/06 00:51:26;;;;;;;6.80;3.63;;;;;;;;;;5055347;28;20033;-68
2023/12/06 00:53:53;;;;;;;3.75;3.15;;;;;;;;;;5057139;28;20458;-67
2023/12/06 00:56:19;;;;;;;4.47;2.78;;;;;;;;;;5062079;28;20029;-68
2023/12/06 00:58:45;;;;;;;5.03;2.97;;;;;;;;;;5057889;28;20021;-67
2023/12/06 01:01:12;;;;;;;3.35;2.53;;;;;;;;;;5059628;28;20141;-67
2023/12/06 01:03:39;;;;;;;4.00;2.70;;;;;;;;;;5062114;28;20032;-67
2023/12/06 01:06:06;;;;;;;2.95;2.65;;;;;;;;;;5063696;28;20123;-68
2023/12/06 01:08:32;;;;;;;4.80;2.45;;;;;;;;;;5069018;28;20403;-68
2023/12/06 01:10:58;;;;;;;5.18;3.38;;;;;;;;;;5072164;28;20032;-68
2023/12/06 01:13:24;;;;;;;12.38;5.18;;;;;;;;;;5058615;28;20154;-68
2023/12/06 01:15:51;;;;;;;10.60;6.22;;;;;;;;;;5061916;28;20025;-67
2023/12/06 01:18:17;;;;;;;10.23;5.60;;;;;;;;;;5068503;28;20029;-67
2023/12/06 01:20:43;;;;;;;6.68;4.75;;;;;;;;;;5065578;28;20329;-66
2023/12/06 01:23:09;;;;;;;7.55;4.80;;;;;;;;;;5066424;28;20373;-67
2023/12/06 01:25:35;;;;;;;3.28;2.90;;;;;;;;;;5063526;28;20368;-68
2023/12/06 01:28:02;;;;;;;3.80;2.95;;;;;;;;;;5062134;28;20109;-68
2023/12/06 01:30:29;;;;;;;2.80;2.58;;;;;;;;;;5070035;28;20480;-67
2023/12/06 01:32:55;;;;;;;3.05;2.50;;;;;;;;;;5064971;28;20029;-71
2023/12/06 01:35:24;;;;;;;3.30;2.47;;;;;;;;;;5063830;28;20055;-67
2023/12/06 01:37:50;;;;;;;3.25;2.95;;;;;;;;;;5058690;28;20537;-68
2023/12/06 01:40:16;;;;;;;3.30;3.00;;;;;;;;;;5060489;28;20028;-67
2023/12/06 01:42:45;;;;;;;7.30;2.55;;;;;;;;;;5056447;28;20028;-67
2023/12/06 01:45:11;;;;;;;3.83;2.60;;;;;;;;;;5056533;28;20051;-68
2023/12/06 01:47:37;;;;;;;5.40;3.35;;;;;;;;;;5092199;27;20037;-67
2023/12/06 01:50:05;;;;;;;3.72;2.58;;;;;;;;;;5060117;28;20025;-67
2023/12/06 01:52:31;;;;;;;6.43;3.13;;;;;;;;;;5070884;28;20031;-67
2023/12/06 01:54:58;;;;;;;4.03;2.83;;;;;;;;;;5070683;28;20395;-67
2023/12/06 01:57:27;;;;;;;3.58;2.80;;;;;;;;;;5075427;28;20024;-68
2023/12/06 01:59:54;;;;;;;5.82;3.55;;;;;;;;;;5077085;28;20502;-67
2023/12/06 02:02:21;;;;;;;3.53;2.85;;;;;;;;;;5061128;28;20025;-67
2023/12/06 02:04:48;;;;;;;2.60;2.40;;;;;;;;;;5063275;28;20032;-67
2023/12/06 02:07:15;;;;;;;2.83;2.53;;;;;;;;;;5061422;28;20025;-67
2023/12/06 02:09:42;;;;;;;4.50;2.65;;;;;;;;;;5060437;28;20182;-67
2023/12/06 02:12:08;;;;;;;3.53;3.10;;;;;;;;;;5053533;28;20110;-67
2023/12/06 02:14:35;;;;;;;4.90;2.88;;;;;;;;;;5061596;28;20044;-68
2023/12/06 02:17:05;;;;;;;3.53;2.97;;;;;;;;;;5063095;28;21268;-68
2023/12/06 02:19:31;;;;;;;3.95;2.78;;;;;;;;;;5063056;28;20037;-67
2023/12/06 02:21:58;;;;;;;5.30;3.33;;;;;;;;;;5060802;28;20029;-67
2023/12/06 02:24:29;;;;;;;5.18;2.78;;;;;;;;;;5052610;28;20392;-67
2023/12/06 02:26:56;;;;;;;5.50;2.80;;;;;;;;;;5061473;28;20425;-67
2023/12/06 02:29:25;;;;;;;3.42;2.58;;;;;;;;;;5060960;28;20029;-67
2023/12/06 02:31:51;;;;;;;5.85;3.08;;;;;;;;;;5053475;28;20041;-67
2023/12/06 02:34:23;;;;;;;4.40;3.63;;;;;;;;;;5063511;28;20167;-67
2023/12/06 02:36:50;;;;;;;3.85;2.83;;;;;;;;;;5055672;28;20581;-68
2023/12/06 02:39:19;;;;;;;2.83;2.53;;;;;;;;;;5069852;28;20491;-67
2023/12/06 02:41:46;;;;;;;4.03;2.90;;;;;;;;;;5053634;28;20016;-68
2023/12/06 02:44:12;;;;;;;6.32;2.67;;;;;;;;;;5059688;28;20134;-68
2023/12/06 02:46:38;;;;;;;3.00;2.63;;;;;;;;;;5064566;28;20112;-68
2023/12/06 02:49:04;;;;;;;4.95;2.45;;;;;;;;;;5060906;28;20036;-67
2023/12/06 02:51:31;;;;;;;2.30;2.05;;;;;;;;;;5061100;28;20056;-67
2023/12/06 02:53:57;;;;;;;2.78;2.25;;;;;;;;;;5053602;28;20020;-68
2023/12/06 02:56:23;;;;;;;3.10;2.47;;;;;;;;;;5058939;28;20032;-67
2023/12/06 02:58:50;;;;;;;3.78;2.60;;;;;;;;;;5060525;28;20032;-67
2023/12/06 03:01:16;;;;;;;3.95;2.92;;;;;;;;;;5057944;28;20021;-67
2023/12/06 03:03:42;;;;;;;4.57;2.60;;;;;;;;;;5058703;28;21941;-67
2023/12/06 03:06:08;;;;;;;2.72;2.35;;;;;;;;;;5053291;28;20487;-68
2023/12/06 03:08:34;;;;;;;3.47;3.05;;;;;;;;;;5060268;28;20028;-68
2023/12/06 03:11:00;;;;;;;3.92;3.30;;;;;;;;;;5063416;28;20032;-67
2023/12/06 03:13:26;;;;;;;3.30;2.88;;;;;;;;;;5060922;28;20036;-67
2023/12/06 03:15:53;;;;;;;3.40;2.85;;;;;;;;;;5056006;28;20037;-67
2023/12/06 03:18:19;;;;;;;3.72;2.63;;;;;;;;;;5064260;28;20540;-67
2023/12/06 03:20:45;;;;;;;3.45;2.42;;;;;;;;;;5077301;28;20081;-68
2023/12/06 03:23:12;;;;;;;3.17;2.47;;;;;;;;;;5059068;28;20025;-67
2023/12/06 03:25:38;;;;;;;3.63;2.80;;;;;;;;;;5063459;28;20412;-67
2023/12/06 03:28:04;;;;;;;4.10;2.70;;;;;;;;;;5062289;28;20036;-67
2023/12/06 03:30:30;;;;;;;3.33;2.85;;;;;;;;;;5055690;28;20074;-67
2023/12/06 03:32:56;;;;;;;3.75;2.83;;;;;;;;;;5062295;28;20035;-67
2023/12/06 03:35:23;;;;;;;4.50;2.90;;;;;;;;;;5055709;28;20028;-67
2023/12/06 03:37:49;;;;;;;3.15;2.30;;;;;;;;;;5066291;28;20037;-68
2023/12/06 03:40:15;;;;;;;3.95;2.75;;;;;;;;;;5062690;28;20070;-67
2023/12/06 03:42:42;;;;;;;2.97;2.38;;;;;;;;;;5061397;28;20085;-67
2023/12/06 03:45:09;;;;;;;2.95;2.50;;;;;;;;;;5070053;28;20056;-67
2023/12/06 03:47:35;;;;;;;3.80;3.03;;;;;;;;;;5061488;28;20029;-68
2023/12/06 03:50:02;;;;;;;3.85;3.10;;;;;;;;;;5059048;28;20036;-68
2023/12/06 03:52:30;;;;;;;3.58;2.60;;;;;;;;;;5073960;28;20039;-67
2023/12/06 03:54:56;;;;;;;4.68;2.72;;;;;;;;;;5070913;28;20362;-68
2023/12/06 03:57:22;;;;;;;4.03;3.13;;;;;;;;;;5063622;28;20032;-68
2023/12/06 03:59:48;;;;;;;3.92;3.42;;;;;;;;;;5058682;28;20503;-68
2023/12/06 04:02:15;;;;;;;3.80;3.35;;;;;;;;;;5061366;28;20671;-68
2023/12/06 04:04:45;;;;;;;3.85;2.90;;;;;;;;;;5064604;28;20031;-68
2023/12/06 04:07:11;;;;;;;4.45;3.17;;;;;;;;;;5064079;28;20170;-68
2023/12/06 04:09:37;;;;;;;5.35;2.88;;;;;;;;;;5057984;28;20028;-68
2023/12/06 04:12:04;;;;;;;5.38;3.17;;;;;;;;;;5063526;28;20085;-68
2023/12/06 04:14:30;;;;;;;4.82;3.55;;;;;;;;;;5060360;28;20547;-68
2023/12/06 04:16:56;;;;;;;5.00;3.60;;;;;;;;;;5075320;28;20056;-68
2023/12/06 04:19:22;;;;;;;8.27;3.40;;;;;;;;;;5062520;28;20580;-68
2023/12/06 04:21:48;;;;;;;4.53;3.22;;;;;;;;;;5061513;28;20031;-68
2023/12/06 04:24:15;;;;;;;3.13;2.65;;;;;;;;;;5058915;28;20592;-68
2023/12/06 04:26:41;;;;;;;7.13;3.22;;;;;;;;;;5078975;28;20037;-68
2023/12/06 04:29:07;;;;;;;6.80;3.50;;;;;;;;;;5067685;28;20033;-68
2023/12/06 04:31:33;;;;;;;4.90;3.42;;;;;;;;;;5066695;28;20128;-68
2023/12/06 04:33:59;;;;;;;5.90;3.03;;;;;;;;;;5065405;28;20560;-68
2023/12/06 04:36:25;;;;;;;5.22;2.85;;;;;;;;;;5063177;28;20028;-67
2023/12/06 04:38:51;;;;;;;4.88;3.35;;;;;;;;;;5060780;28;20058;-67
2023/12/06 04:41:18;;;;;;;6.53;3.20;;;;;;;;;;5072819;28;20425;-68
2023/12/06 04:43:44;;;;;;;5.22;3.38;;;;;;;;;;5060349;28;20467;-68
2023/12/06 04:46:12;;;;;;;3.75;3.25;;;;;;;;;;5071811;28;20054;-68
2023/12/06 04:48:38;;;;;;;5.60;3.17;;;;;;;;;;5065440;28;20085;-68
2023/12/06 04:51:04;;;;;;;8.75;3.70;;;;;;;;;;5060981;28;20546;-67
2023/12/06 04:53:31;;;;;;;6.45;4.13;;;;;;;;;;5074226;28;20028;-68
2023/12/06 04:55:57;;;;;;;5.70;3.90;;;;;;;;;;5080954;28;20081;-68
2023/12/06 04:58:23;;;;;;;5.30;3.58;;;;;;;;;;5062643;28;20651;-68
2023/12/06 05:00:50;;;;;;;5.47;3.55;;;;;;;;;;5077801;28;20392;-67
2023/12/06 05:03:16;;;;;;;5.00;3.42;;;;;;;;;;5073360;28;20357;-68
2023/12/06 05:05:42;;;;;;;9.05;3.58;;;;;;;;;;5064966;28;20476;-68
2023/12/06 05:08:09;;;;;;;4.57;3.78;;;;;;;;;;5061322;28;20032;-68
2023/12/06 05:10:35;;;;;;;6.47;3.15;;;;;;;;;;5059692;28;20035;-68
2023/12/06 05:13:01;;;;;;;4.28;3.15;;;;;;;;;;5064434;28;20032;-68
2023/12/06 05:15:27;;;;;;;5.88;3.55;;;;;;;;;;5077278;28;20028;-68
2023/12/06 05:17:53;;;;;;;5.95;3.53;;;;;;;;;;5058862;28;20032;-68
2023/12/06 05:20:20;;;;;;;5.00;3.28;;;;;;;;;;5064180;28;20017;-67
2023/12/06 05:22:46;;;;;;;4.50;3.45;;;;;;;;;;5061773;28;20043;-68
2023/12/06 05:25:12;;;;;;;4.15;3.55;;;;;;;;;;5064905;28;20379;-68
2023/12/06 05:27:38;;;;;;;4.15;3.00;;;;;;;;;;5064128;28;20167;-68
2023/12/06 05:30:06;;;;;;;7.43;3.22;;;;;;;;;;5062534;28;20033;-68
2023/12/06 05:32:32;;;;;;;3.88;3.03;;;;;;;;;;5057802;28;20029;-68
2023/12/06 05:34:58;;;;;;;3.75;2.83;;;;;;;;;;5064778;28;20039;-68
2023/12/06 05:37:24;;;;;;;4.78;3.45;;;;;;;;;;5057576;28;20098;-68
2023/12/06 05:39:50;;;;;;;3.28;2.60;;;;;;;;;;5064836;28;20542;-68
2023/12/06 05:42:16;;;;;;;3.85;2.97;;;;;;;;;;5064741;28;20016;-68
2023/12/06 05:44:43;;;;;;;6.10;3.85;;;;;;;;;;5066124;28;20431;-67
2023/12/06 05:47:09;;;;;;;2.80;2.50;;;;;;;;;;5064924;28;20039;-69
2023/12/06 05:49:35;;;;;;;3.53;2.63;;;;;;;;;;5064399;28;20032;-68
2023/12/06 05:52:01;;;;;;;4.38;3.00;;;;;;;;;;5064983;28;20032;-68
2023/12/06 05:54:27;;;;;;;3.70;2.90;;;;;;;;;;5063579;28;20508;-67
2023/12/06 05:56:54;;;;;;;5.15;3.30;;;;;;;;;;5081150;28;20032;-67
2023/12/06 05:59:20;;;;;;;6.97;2.97;;;;;;;;;;5067180;28;20024;-67
2023/12/06 06:01:46;;;;;;;5.57;3.03;;;;;;;;;;5063471;28;20029;-67
2023/12/06 06:04:12;;;;;;;4.35;3.22;;;;;;;;;;5062301;28;20261;-67
2023/12/06 06:06:38;;;;;;;2.85;2.50;;;;;;;;;;5067412;28;20086;-67
2023/12/06 06:09:05;;;;;;;4.82;2.80;;;;;;;;;;5069552;28;20039;-67
2023/12/06 06:11:31;;;;;;;3.10;2.80;;;;;;;;;;5067178;28;20020;-67
2023/12/06 06:13:57;;;;;;;3.35;2.65;;;;;;;;;;5077698;28;20306;-66
2023/12/06 06:16:23;;;;;;;4.00;2.45;;;;;;;;;;5058568;28;20032;-67
2023/12/06 06:18:50;;;;;;;5.00;2.80;;;;;;;;;;5060534;28;20028;-67
2023/12/06 06:21:16;;;;;;;2.92;2.55;;;;;;;;;;5059757;28;20028;-67
2023/12/06 06:23:43;;;;;;;5.25;2.70;;;;;;;;;;5055380;28;20044;-67
2023/12/06 06:26:09;;;;;;;3.88;2.88;;;;;;;;;;5064969;28;20480;-67
2023/12/06 06:28:36;;;;;;;3.75;3.13;;;;;;;;;;5076159;28;20032;-67
2023/12/06 06:31:02;;;;;;;4.72;2.97;;;;;;;;;;5058880;28;20115;-67
2023/12/06 06:33:28;;;;;;;4.55;2.78;;;;;;;;;;5062330;28;20029;-67
2023/12/06 06:35:54;;;;;;;4.05;2.70;;;;;;;;;;5057248;28;20135;-66
2023/12/06 06:38:21;;;;;;;10.13;3.20;;;;;;;;;;5062775;28;20691;-67
2023/12/06 06:40:47;;;;;;;5.75;3.17;;;;;;;;;;5058158;28;20031;-67
2023/12/06 06:43:13;;;;;;;3.67;2.83;;;;;;;;;;5059231;28;20033;-69
2023/12/06 06:45:42;;;;;;;4.47;2.75;;;;;;;;;;5072488;28;20120;-67
2023/12/06 06:48:09;;;;;;;3.10;2.63;;;;;;;;;;5051337;28;20020;-67
2023/12/06 06:50:36;;;;;;;5.78;3.15;;;;;;;;;;5057932;28;20112;-68
2023/12/06 06:53:03;;;;;;;4.00;2.53;;;;;;;;;;5058029;28;20029;-67
2023/12/06 06:55:29;;;;;;;3.22;2.53;;;;;;;;;;5063609;28;20429;-68
2023/12/06 06:57:56;;;;;;;3.55;2.53;;;;;;;;;;5054383;28;20029;-68
2023/12/06 07:00:23;;;;;;;4.10;2.55;;;;;;;;;;5065754;28;20077;-68
2023/12/06 07:02:49;;;;;;;2.30;1.80;;;;;;;;;;5055029;28;20083;-68
2023/12/06 07:05:15;;;;;;;1.88;1.70;;;;;;;;;;5067254;28;20554;-68
2023/12/06 07:07:44;;;;;;;2.85;1.80;;;;;;;;;;5060214;28;20017;-68
2023/12/06 07:10:16;;;;;;;1.75;1.65;;;;;;;;;;5063716;28;20081;-68
2023/12/06 07:12:43;;;;;;;1.55;1.45;;;;;;;;;;5061823;28;20024;-68
2023/12/06 07:15:14;;;;;;;1.50;1.40;;;;;;;;;;5056763;28;20021;-68
2023/12/06 07:17:42;;;;;;;1.50;1.40;;;;;;;;;;5058748;28;20490;-68
2023/12/06 07:20:11;;;;;;;1.77;1.67;;;;;;;;;;5055190;28;20031;-68
2023/12/06 07:22:37;;;;;;;1.40;1.40;;;;;;;;;;5055531;28;20109;-68
2023/12/06 07:25:05;;;;;;;1.40;1.30;;;;;;;;;;5056345;28;20404;-68
2023/12/06 07:27:31;;;;;;;1.60;1.50;;;;;;;;;;5058234;28;21193;-68
2023/12/06 07:29:58;;;;;;;1.33;1.33;;;;;;;;;;5059913;28;20059;-68
2023/12/06 07:32:26;;;;;;;2.15;1.60;;;;;;;;;;5056351;28;20033;-68
2023/12/06 07:34:52;;;;;;;3.97;3.35;;;;;;;;;;5059131;28;20071;-68
2023/12/06 07:37:18;;;;;;;4.10;2.33;;;;;;;;;;5052496;28;20028;-68
2023/12/06 07:39:45;;;;;;;7.90;2.58;;;;;;;;;;5049477;28;20031;-68
2023/12/06 07:42:11;;;;;;;2.10;1.88;;;;;;;;;;5052910;28;20028;-68
2023/12/06 07:44:37;;;;;;;3.10;1.52;;;;;;;;;;5060250;28;20371;-68
2023/12/06 07:47:03;;;;;;;2.65;2.42;;;;;;;;;;5054046;28;20086;-68
2023/12/06 07:49:29;;;;;;;1.50;1.40;;;;;;;;;;5058764;28;20039;-68
2023/12/06 07:51:56;;;;;;;2.67;1.60;;;;;;;;;;5058764;28;20104;-68
2023/12/06 07:54:22;;;;;;;3.45;1.90;;;;;;;;;;5064825;28;20040;-68
2023/12/06 07:56:49;;;;;;;3.28;1.88;;;;;;;;;;5062467;28;20535;-68
2023/12/06 07:59:15;;;;;;;7.45;1.83;;;;;;;;;;5076895;28;20108;-68
2023/12/06 08:01:43;;;;;;;5.25;1.77;;;;;;;;;;5077724;28;20634;-68
2023/12/06 08:04:09;;;;;;;5.07;1.98;;;;;;;;;;5066583;28;20381;-68
2023/12/06 08:06:36;;;;;;;1.77;1.67;;;;;;;;;;5063391;28;20036;-68
2023/12/06 08:09:10;;;;;;;3.10;2.30;;;;;;;;;;5067162;28;20480;-68
2023/12/06 08:11:37;;;;;;;3.03;2.47;;;;;;;;;;5057473;28;20039;-67
2023/12/06 08:14:03;;;;;;;4.65;2.00;;;;;;;;;;5077778;28;20514;-68
2023/12/06 08:16:29;;;;;;;2.10;1.90;;;;;;;;;;5064928;28;20035;-67
2023/12/06 08:18:55;;;;;;;2.70;2.30;;;;;;;;;;5069612;28;20217;-68
2023/12/06 08:21:22;;;;;;;3.40;2.10;;;;;;;;;;5064435;28;20028;-68
2023/12/06 08:23:48;;;;;;;3.45;2.10;;;;;;;;;;5057755;28;20028;-68
2023/12/06 08:26:14;;;;;;;4.80;2.20;;;;;;;;;;5062223;28;20506;-68
2023/12/06 08:28:40;;;;;;;5.38;2.30;;;;;;;;;;5067053;28;20369;-69
2023/12/06 08:31:08;;;;;;;2.30;2.00;;;;;;;;;;5064053;28;20052;-68
2023/12/06 08:33:35;;;;;;;2.50;2.30;;;;;;;;;;5069762;28;20572;-67
2023/12/06 08:36:02;;;;;;;3.67;2.13;;;;;;;;;;5062519;28;20558;-68
2023/12/06 08:38:28;;;;;;;2.33;2.13;;;;;;;;;;5058604;28;20021;-68
2023/12/06 08:40:54;;;;;;;2.83;2.08;;;;;;;;;;5058310;28;20599;-67
2023/12/06 08:43:20;;;;;;;2.72;2.13;;;;;;;;;;5058389;28;20385;-68
2023/12/06 08:45:47;;;;;;;11.00;2.15;;;;;;;;;;5058192;28;20045;-67
2023/12/06 08:48:13;;;;;;;5.88;2.53;;;;;;;;;;5058732;28;20039;-68
2023/12/06 08:50:42;;;;;;;2.97;2.22;;;;;;;;;;5057846;28;20030;-68
2023/12/06 08:53:09;;;;;;;3.55;2.10;;;;;;;;;;5060210;28;20043;-68
2023/12/06 08:55:35;;;;;;;8.30;3.65;;;;;;;;;;5064969;28;20038;-68
2023/12/06 08:58:01;;;;;;;3.53;2.72;;;;;;;;;;5062955;28;20021;-67
2023/12/06 09:00:27;;;;;;;3.65;2.60;;;;;;;;;;5060302;28;20040;-67
2023/12/06 09:02:56;;;;;;;4.93;3.15;;;;;;;;;;5079852;28;20195;-68
2023/12/06 09:05:22;;;;;;;3.03;2.42;;;;;;;;;;5071540;28;20483;-68
2023/12/06 09:07:49;;;;;;;7.68;3.55;;;;;;;;;;5053667;28;20194;-68
2023/12/06 09:10:15;;;;;;;6.00;3.33;;;;;;;;;;5061455;28;20024;-68
2023/12/06 09:12:42;;;;;;;5.72;2.78;;;;;;;;;;5057302;28;20363;-68
2023/12/06 09:15:08;;;;;;;2.67;2.42;;;;;;;;;;5077470;28;20507;-68
2023/12/06 09:17:34;;;;;;;2.45;2.15;;;;;;;;;;5056823;28;20033;-71
2023/12/06 09:20:01;;;;;;;4.57;2.40;;;;;;;;;;5077498;28;20021;-68
2023/12/06 09:22:27;;;;;;;4.80;2.15;;;;;;;;;;5062543;28;20025;-67
2023/12/06 09:24:53;;;;;;;6.60;3.75;;;;;;;;;;5056470;28;20028;-67
2023/12/06 09:27:19;;;;;;;7.65;3.15;;;;;;;;;;5062440;28;20055;-68
2023/12/06 09:29:46;;;;;;;3.05;2.75;;;;;;;;;;5058023;28;20113;-68
2023/12/06 09:32:14;;;;;;;5.72;3.13;;;;;;;;;;5059528;28;20032;-68
2023/12/06 09:34:41;;;;;;;7.63;3.75;;;;;;;;;;5061037;28;20052;-68
2023/12/06 09:37:08;;;;;;;8.55;3.40;;;;;;;;;;5058926;28;21127;-68
2023/12/06 09:39:34;;;;;;;3.92;2.58;;;;;;;;;;5060546;28;20028;-68
2023/12/06 09:42:02;;;;;;;8.23;2.65;;;;;;;;;;5053803;28;21150;-68
2023/12/06 09:44:28;;;;;;;4.85;2.40;;;;;;;;;;5059563;28;20076;-68
2023/12/06 09:46:54;;;;;;;4.07;2.45;;;;;;;;;;5054467;28;20033;-68
2023/12/06 09:49:21;;;;;;;10.60;5.13;;;;;;;;;;5063654;28;20417;-68
2023/12/06 09:51:47;;;;;;;6.82;3.22;;;;;;;;;;5064174;28;20028;-68
2023/12/06 09:54:14;;;;;;;7.03;3.50;;;;;;;;;;5062780;28;20666;-68
2023/12/06 09:56:40;;;;;;;2.97;2.40;;;;;;;;;;5060876;28;20025;-68
2023/12/06 09:59:06;;;;;;;4.60;2.78;;;;;;;;;;5063393;28;20021;-69
2023/12/06 10:01:32;;;;;;;4.72;3.00;;;;;;;;;;5061612;28;20024;-69
2023/12/06 10:03:59;;;;;;;4.75;2.50;;;;;;;;;;5057810;28;20131;-68
2023/12/06 10:06:26;;;;;;;3.17;2.08;;;;;;;;;;5051546;28;20028;-68
2023/12/06 10:08:55;;;;;;;3.90;2.35;;;;;;;;;;5065054;28;20032;-68
2023/12/06 10:11:25;;;;;;;6.63;2.90;;;;;;;;;;5064200;28;20025;-68
2023/12/06 10:13:51;;;;;;;8.77;2.63;;;;;;;;;;5084124;28;20029;-67
2023/12/06 10:16:21;;;;;;;5.90;2.55;;;;;;;;;;5066782;28;20026;-68
2023/12/06 10:18:48;;;;;;;2.58;2.33;;;;;;;;;;5058348;28;20012;-68
2023/12/06 10:21:14;;;;;;;4.25;2.28;;;;;;;;;;5054447;28;20463;-68
2023/12/06 10:23:42;;;;;;;9.38;2.17;;;;;;;;;;5064813;28;20559;-68
2023/12/06 10:26:15;;;;;;;3.55;2.10;;;;;;;;;;5058233;28;20427;-68
2023/12/06 10:28:42;;;;;;;6.00;2.40;;;;;;;;;;5060519;28;20378;-68
2023/12/06 10:31:08;;;;;;;4.18;2.53;;;;;;;;;;5055485;28;20024;-68
2023/12/06 10:33:34;;;;;;;6.57;2.42;;;;;;;;;;5054292;28;20269;-68
2023/12/06 10:36:02;;;;;;;2.40;2.10;;;;;;;;;;5076748;28;20025;-68
2023/12/06 10:38:29;;;;;;;3.95;2.22;;;;;;;;;;5069416;28;20332;-67
2023/12/06 10:40:58;;;;;;;2.72;2.20;;;;;;;;;;5066043;28;20031;-68
2023/12/06 10:43:24;;;;;;;4.18;2.47;;;;;;;;;;5061782;28;20017;-68
2023/12/06 10:45:51;;;;;;;4.32;2.20;;;;;;;;;;5066892;28;20051;-68
2023/12/06 10:48:18;;;;;;;3.45;2.05;;;;;;;;;;5054310;28;20048;-68
2023/12/06 10:50:45;;;;;;;3.33;2.50;;;;;;;;;;5064737;28;20032;-68
2023/12/06 10:53:17;;;;;;;3.40;2.58;;;;;;;;;;5050113;28;20052;-68
2023/12/06 10:55:43;;;;;;;4.50;2.45;;;;;;;;;;5065860;28;20028;-68
2023/12/06 10:58:10;;;;;;;4.38;2.30;;;;;;;;;;5065703;28;20592;-68
2023/12/06 11:00:37;;;;;;;3.70;2.20;;;;;;;;;;5064691;28;20020;-67
2023/12/06 11:03:03;;;;;;;4.05;2.35;;;;;;;;;;5066917;28;20543;-68
2023/12/06 11:05:32;;;;;;;4.65;2.30;;;;;;;;;;5062319;28;20035;-68
2023/12/06 11:08:04;;;;;;;3.08;2.20;;;;;;;;;;5076549;28;20036;-67
2023/12/06 11:10:57;;;;;;;4.72;2.50;;;;;;;;;;5060388;28;20380;-67
2023/12/06 11:13:42;;;;;;;3.58;2.75;;;;;;;;;;5049301;28;20080;-68
2023/12/06 11:16:16;;;;;;;4.22;2.58;;;;;;;;;;5051910;28;20177;-67
2023/12/06 11:18:46;;;;;;;3.67;2.97;;;;;;;;;;5062269;28;20029;-68
2023/12/06 11:21:13;;;;;;;5.28;2.40;;;;;;;;;;5081512;28;20053;-67
2023/12/06 11:23:41;;;;;;;4.97;2.50;;;;;;;;;;5067219;28;20024;-68
2023/12/06 11:26:07;;;;;;;7.15;2.65;;;;;;;;;;5063082;28;20016;-67
2023/12/06 11:28:41;;;;;;;3.05;1.88;;;;;;;;;;5072025;28;20028;-68
2023/12/06 11:31:08;;;;;;;1.90;1.80;;;;;;;;;;5063521;28;20119;-69
2023/12/06 11:33:35;;;;;;;3.83;2.42;;;;;;;;;;5056288;28;20056;-67
2023/12/06 11:36:02;;;;;;;3.75;2.22;;;;;;;;;;5055781;28;20028;-67
2023/12/06 11:38:34;;;;;;;3.08;1.90;;;;;;;;;;5054376;28;20024;-68
2023/12/06 11:41:00;;;;;;;1.98;1.77;;;;;;;;;;5065578;28;20123;-67
2023/12/06 11:43:39;;;;;;;4.57;2.47;;;;;;;;;;5048865;28;20440;-67
2023/12/06 11:46:09;;;;;;;2.53;2.30;;;;;;;;;;5049621;28;20075;-67
2023/12/06 11:48:37;;;;;;;2.03;1.80;;;;;;;;;;5049256;28;20041;-69
2023/12/06 11:51:04;;;;;;;6.30;3.13;;;;;;;;;;5047614;28;20028;-66
2023/12/06 11:53:30;;;;;;;4.38;2.17;;;;;;;;;;5050958;28;20031;-67
2023/12/06 11:55:57;;;;;;;4.22;2.78;;;;;;;;;;5050151;28;20033;-68
2023/12/06 11:58:29;;;;;;;4.03;2.35;;;;;;;;;;5049831;28;20032;-67
2023/12/06 12:00:56;;;;;;;10.95;4.80;;;;;;;;;;5046698;28;20025;-68
2023/12/06 12:03:22;;;;;;;5.07;3.00;;;;;;;;;;5050535;28;20059;-67
2023/12/06 12:05:49;;;;;;;3.70;1.92;;;;;;;;;;5051678;28;20553;-69
2023/12/06 12:08:16;;;;;;;5.28;1.98;;;;;;;;;;5051551;28;20048;-68
2023/12/06 12:10:42;;;;;;;3.15;2.20;;;;;;;;;;5051253;28;20040;-67
2023/12/06 12:13:22;;;;;;;2.47;1.70;;;;;;;;;;5052842;28;20475;-68
2023/12/06 12:15:54;;;;;;;2.22;2.00;;;;;;;;;;5060138;28;20665;-69
2023/12/06 12:18:21;;;;;;;4.63;1.92;;;;;;;;;;5064083;28;20094;-66
2023/12/06 12:20:47;;;;;;;4.85;2.17;;;;;;;;;;5061606;28;20020;-68
2023/12/06 12:23:13;;;;;;;3.90;1.85;;;;;;;;;;5063824;28;20076;-68
2023/12/06 12:25:47;;;;;;;2.70;1.95;;;;;;;;;;5050657;28;20306;-67
2023/12/06 12:28:17;;;;;;;7.63;1.92;;;;;;;;;;5047128;28;20029;-66
2023/12/06 12:30:46;;;;;;;5.03;2.08;;;;;;;;;;5051730;28;20029;-67
2023/12/06 12:33:14;;;;;;;3.05;2.22;;;;;;;;;;5059860;28;20039;-67
2023/12/06 12:35:40;;;;;;;5.40;2.25;;;;;;;;;;5056423;28;20032;-67
2023/12/06 12:38:07;;;;;;;1.85;1.63;;;;;;;;;;5061762;28;20660;-66
2023/12/06 12:40:33;;;;;;;3.13;1.75;;;;;;;;;;5051330;28;20032;-67
2023/12/06 12:42:59;;;;;;;6.28;2.25;;;;;;;;;;5047322;28;20033;-67
2023/12/06 12:45:26;;;;;;;6.13;2.20;;;;;;;;;;5051309;28;20040;-67
2023/12/06 12:47:54;;;;;;;2.40;1.80;;;;;;;;;;5069666;28;20041;-67
2023/12/06 12:50:21;;;;;;;4.90;1.90;;;;;;;;;;5053316;28;20125;-67
2023/12/06 12:52:53;;;;;;;2.88;1.95;;;;;;;;;;5062179;28;20082;-68
2023/12/06 12:55:20;;;;;;;3.67;1.70;;;;;;;;;;5069520;28;20032;-68
2023/12/06 12:57:47;;;;;;;1.83;1.60;;;;;;;;;;5051774;28;20031;-67
2023/12/06 13:00:20;;;;;;;3.20;2.00;;;;;;;;;;5054265;28;20024;-68
2023/12/06 13:02:50;;;;;;;3.80;1.70;;;;;;;;;;5076199;28;20017;-68
2023/12/06 13:05:17;;;;;;;6.13;2.85;;;;;;;;;;5065287;28;20032;-68
2023/12/06 13:07:44;;;;;;;5.97;3.63;;;;;;;;;;5065661;28;20759;-68
2023/12/06 13:10:14;;;;;;;3.45;2.60;;;;;;;;;;5065516;28;20020;-67
2023/12/06 13:12:40;;;;;;;3.63;2.40;;;;;;;;;;5061310;28;20020;-67
2023/12/06 13:15:10;;;;;;;6.32;3.35;;;;;;;;;;5063166;28;20046;-69
2023/12/06 13:17:37;;;;;;;2.58;2.08;;;;;;;;;;5061792;28;20031;-67
2023/12/06 13:20:04;;;;;;;6.78;2.33;;;;;;;;;;5067754;28;20083;-67
2023/12/06 13:22:31;;;;;;;4.53;3.03;;;;;;;;;;5067431;28;20024;-68
2023/12/06 13:24:57;;;;;;;3.67;2.80;;;;;;;;;;5067044;28;20105;-68
2023/12/06 13:27:24;;;;;;;12.30;3.30;;;;;;;;;;5070271;28;20040;-67
2023/12/06 13:29:50;;;;;;;4.97;3.30;;;;;;;;;;5057819;28;20036;-67
2023/12/06 13:32:17;;;;;;;5.78;2.83;;;;;;;;;;5065476;28;20060;-67
2023/12/06 13:34:46;;;;;;;7.50;2.60;;;;;;;;;;5061384;28;20576;-67
2023/12/06 13:37:13;;;;;;;2.63;2.00;;;;;;;;;;5063541;28;20560;-68
2023/12/06 13:39:40;;;;;;;4.07;2.47;;;;;;;;;;5061274;28;20789;-67
2023/12/06 13:42:07;;;;;;;3.95;2.60;;;;;;;;;;5059664;28;20032;-66
2023/12/06 13:44:33;;;;;;;3.25;2.33;;;;;;;;;;5058328;28;20080;-67
2023/12/06 13:46:59;;;;;;;4.35;2.80;;;;;;;;;;5060873;28;20033;-67
2023/12/06 13:49:28;;;;;;;3.00;2.25;;;;;;;;;;5080851;28;20049;-68
2023/12/06 13:51:54;;;;;;;3.08;2.10;;;;;;;;;;5059292;28;20643;-67
2023/12/06 13:54:21;;;;;;;4.03;1.98;;;;;;;;;;5062447;28;20133;-66
2023/12/06 13:56:47;;;;;;;4.03;2.20;;;;;;;;;;5057745;28;20050;-67
2023/12/06 13:59:16;;;;;;;5.43;2.13;;;;;;;;;;5060830;28;20032;-66
2023/12/06 14:01:43;;;;;;;3.50;2.10;;;;;;;;;;5077306;28;20025;-66
2023/12/06 14:04:10;;;;;;;3.47;1.95;;;;;;;;;;5062343;28;20391;-66
2023/12/06 14:06:41;;;;;;;3.60;2.10;;;;;;;;;;5062013;28;20032;-67
2023/12/06 14:09:08;;;;;;;5.15;1.77;;;;;;;;;;5059403;28;20689;-66
2023/12/06 14:11:36;;;;;;;3.42;2.70;;;;;;;;;;5053016;28;20140;-66
2023/12/06 14:14:02;;;;;;;6.00;2.70;;;;;;;;;;5065980;28;20501;-66
2023/12/06 14:16:28;;;;;;;4.43;2.55;;;;;;;;;;5049478;28;20109;-67
2023/12/06 14:18:55;;;;;;;4.10;2.90;;;;;;;;;;5051900;28;21645;-67
2023/12/06 14:21:21;;;;;;;3.35;2.70;;;;;;;;;;5052247;28;20016;-66
2023/12/06 14:23:48;;;;;;;3.00;2.17;;;;;;;;;;5053399;28;20691;-66
2023/12/06 14:26:15;;;;;;;5.95;2.90;;;;;;;;;;5052355;28;20298;-66
2023/12/06 14:28:41;;;;;;;7.00;3.47;;;;;;;;;;5050266;28;20093;-65
2023/12/06 14:31:08;;;;;;;3.75;2.40;;;;;;;;;;5069173;28;20120;-66
2023/12/06 14:33:35;;;;;;;3.28;2.85;;;;;;;;;;5073311;28;20112;-67
2023/12/06 14:36:02;;;;;;;5.88;2.55;;;;;;;;;;5055455;28;20033;-66
2023/12/06 14:38:28;;;;;;;7.00;3.40;;;;;;;;;;5057451;28;20024;-66
2023/12/06 14:40:54;;;;;;;4.55;3.17;;;;;;;;;;5072597;28;20031;-66